sensor_id;sensor_type;location;lat;lon;timestamp;pressure;altitude;pressure_sealevel;temperature;humidity
54872;BME280;43914;57.680;11.982;2023-09-19T00:00:34;98934.99;;;16.88;100.00
54872;BME280;43914;57.680;11.982;2023-09-19T00:03:01;98926.69;;;16.88;100.00
54872;BME280;43914;57.680;11.982;2023-09-19T00:05:27;98923.87;;;16.89;100.00
54872;BME280;43914;57.680;11.982;2023-09-19T00:07:57;98915.77;;;16.90;100.00
54872;BME280;43914;57.680;11.982;2023-09-19T00:10:27;98903.84;;;16.90;100.00
54872;BME280;43914;57.680;11.982;2023-09-19T00:12:57;98900.26;;;16.90;100.00
54872;BME280;43914;57.680;11.982;2023-09-19T00:15:25;98890.55;;;16.89;100.00
54872;BME280;43914;57.680;11.982;2023-09-19T00:17:54;98884.03;;;16.91;100.00
54872;BME280;43914;57.680;11.982;2023-09-19T00:20:20;98880.40;;;16.89;100.00
54872;BME280;43914;57.680;11.982;2023-09-19T00:22:51;98881.48;;;16.89;100.00
54872;BME280;43914;57.680;11.982;2023-09-19T00:25:19;98895.48;;;16.88;100.00
54872;BME280;43914;57.680;11.982;2023-09-19T00:27:46;98896.52;;;16.87;100.00
54872;BME280;43914;57.680;11.982;2023-09-19T00:30:15;98898.20;;;16.87;100.00
54872;BME280;43914;57.680;11.982;2023-09-19T00:32:45;98893.86;;;16.86;100.00
54872;BME280;43914;57.680;11.982;2023-09-19T00:35:14;98888.70;;;16.84;100.00
54872;BME280;43914;57.680;11.982;2023-09-19T00:37:44;98884.52;;;16.82;100.00
54872;BME280;43914;57.680;11.982;2023-09-19T00:40:11;98879.59;;;16.81;100.00
54872;BME280;43914;57.680;11.982;2023-09-19T00:42:44;98877.85;;;16.79;100.00
54872;BME280;43914;57.680;11.982;2023-09-19T00:45:11;98872.69;;;16.78;100.00
54872;BME280;43914;57.680;11.982;2023-09-19T00:47:48;98871.35;;;16.75;100.00
54872;BME280;43914;57.680;11.982;2023-09-19T00:50:20;98869.88;;;16.73;100.00
54872;BME280;43914;57.680;11.982;2023-09-19T00:52:48;98860.02;;;16.70;100.00
54872;BME280;43914;57.680;11.982;2023-09-19T00:55:16;98853.92;;;16.69;100.00
54872;BME280;43914;57.680;11.982;2023-09-19T00:57:45;98853.21;;;16.67;100.00
54872;BME280;43914;57.680;11.982;2023-09-19T01:00:12;98850.02;;;16.65;100.00
54872;BME280;43914;57.680;11.982;2023-09-19T01:02:42;98842.10;;;16.61;100.00
54872;BME280;43914;57.680;11.982;2023-09-19T01:05:10;98833.48;;;16.60;100.00
54872;BME280;43914;57.680;11.982;2023-09-19T01:07:36;98831.52;;;16.58;100.00
54872;BME280;43914;57.680;11.982;2023-09-19T01:10:08;98831.85;;;16.57;100.00
54872;BME280;43914;57.680;11.982;2023-09-19T01:32:05;98790.75;;;16.50;100.00
54872;BME280;43914;57.680;11.982;2023-09-19T01:34:48;98788.68;;;16.50;100.00
54872;BME280;43914;57.680;11.982;2023-09-19T01:37:17;98788.47;;;16.50;100.00
54872;BME280;43914;57.680;11.982;2023-09-19T01:39:53;98788.84;;;16.51;100.00
54872;BME280;43914;57.680;11.982;2023-09-19T01:46:19;98777.50;;;16.50;100.00
54872;BME280;43914;57.680;11.982;2023-09-19T01:51:02;98775.94;;;16.51;100.00
54872;BME280;43914;57.680;11.982;2023-09-19T01:53:44;98772.68;;;16.51;100.00
54872;BME280;43914;57.680;11.982;2023-09-19T01:56:22;98769.48;;;16.52;100.00
54872;BME280;43914;57.680;11.982;2023-09-19T01:58:54;98767.20;;;16.52;100.00
54872;BME280;43914;57.680;11.982;2023-09-19T02:01:24;98766.92;;;16.54;100.00
54872;BME280;43914;57.680;11.982;2023-09-19T02:03:50;98764.48;;;16.55;100.00
54872;BME280;43914;57.680;11.982;2023-09-19T02:06:17;98763.13;;;16.56;100.00
54872;BME280;43914;57.680;11.982;2023-09-19T02:08:44;98762.04;;;16.57;100.00
54872;BME280;43914;57.680;11.982;2023-09-19T02:11:11;98746.70;;;16.57;100.00
54872;BME280;43914;57.680;11.982;2023-09-19T02:13:37;98742.63;;;16.58;100.00
54872;BME280;43914;57.680;11.982;2023-09-19T02:16:03;98732.42;;;16.59;100.00
54872;BME280;43914;57.680;11.982;2023-09-19T02:18:33;98720.50;;;16.59;100.00
54872;BME280;43914;57.680;11.982;2023-09-19T02:21:20;98713.98;;;16.59;100.00
54872;BME280;43914;57.680;11.982;2023-09-19T02:23:47;98715.02;;;16.59;100.00
54872;BME280;43914;57.680;11.982;2023-09-19T02:26:13;98716.27;;;16.60;100.00
54872;BME280;43914;57.680;11.982;2023-09-19T02:28:40;98716.47;;;16.61;100.00
54872;BME280;43914;57.680;11.982;2023-09-19T02:31:05;98706.70;;;16.63;100.00
54872;BME280;43914;57.680;11.982;2023-09-19T02:33:31;98704.33;;;16.65;100.00
54872;BME280;43914;57.680;11.982;2023-09-19T02:35:59;98705.02;;;16.66;100.00
54872;BME280;43914;57.680;11.982;2023-09-19T02:38:26;98702.02;;;16.67;100.00
54872;BME280;43914;57.680;11.982;2023-09-19T02:40:55;98695.19;;;16.69;100.00
54872;BME280;43914;57.680;11.982;2023-09-19T02:43:21;98684.72;;;16.71;100.00
54872;BME280;43914;57.680;11.982;2023-09-19T02:45:47;98679.85;;;16.72;100.00
54872;BME280;43914;57.680;11.982;2023-09-19T02:48:18;98677.73;;;16.72;100.00
54872;BME280;43914;57.680;11.982;2023-09-19T02:50:44;98679.19;;;16.73;100.00
54872;BME280;43914;57.680;11.982;2023-09-19T02:53:10;98672.29;;;16.74;100.00
54872;BME280;43914;57.680;11.982;2023-09-19T02:55:38;98668.88;;;16.73;100.00
54872;BME280;43914;57.680;11.982;2023-09-19T02:58:06;98666.98;;;16.74;100.00
54872;BME280;43914;57.680;11.982;2023-09-19T03:00:44;98659.44;;;16.75;100.00
54872;BME280;43914;57.680;11.982;2023-09-19T03:03:12;98655.09;;;16.74;100.00
54872;BME280;43914;57.680;11.982;2023-09-19T03:05:38;98650.10;;;16.73;100.00
54872;BME280;43914;57.680;11.982;2023-09-19T03:08:04;98644.46;;;16.72;100.00
54872;BME280;43914;57.680;11.982;2023-09-19T03:10:30;98638.23;;;16.72;100.00
54872;BME280;43914;57.680;11.982;2023-09-19T03:12:56;98629.39;;;16.72;100.00
54872;BME280;43914;57.680;11.982;2023-09-19T03:15:23;98623.91;;;16.71;100.00
54872;BME280;43914;57.680;11.982;2023-09-19T03:17:49;98622.13;;;16.69;100.00
54872;BME280;43914;57.680;11.982;2023-09-19T03:20:15;98617.84;;;16.69;100.00
54872;BME280;43914;57.680;11.982;2023-09-19T03:22:45;98612.46;;;16.67;100.00
54872;BME280;43914;57.680;11.982;2023-09-19T03:25:11;98612.80;;;16.67;100.00
54872;BME280;43914;57.680;11.982;2023-09-19T03:27:40;98610.58;;;16.65;100.00
54872;BME280;43914;57.680;11.982;2023-09-19T03:30:06;98606.73;;;16.63;100.00
54872;BME280;43914;57.680;11.982;2023-09-19T03:32:37;98597.95;;;16.63;100.00
54872;BME280;43914;57.680;11.982;2023-09-19T03:35:04;98596.44;;;16.62;100.00
54872;BME280;43914;57.680;11.982;2023-09-19T03:37:35;98593.09;;;16.61;100.00
54872;BME280;43914;57.680;11.982;2023-09-19T03:40:00;98589.68;;;16.59;100.00
54872;BME280;43914;57.680;11.982;2023-09-19T03:42:30;98589.30;;;16.58;100.00
54872;BME280;43914;57.680;11.982;2023-09-19T03:44:56;98585.77;;;16.57;100.00
54872;BME280;43914;57.680;11.982;2023-09-19T03:47:22;98590.89;;;16.54;100.00
54872;BME280;43914;57.680;11.982;2023-09-19T03:49:49;98586.89;;;16.50;100.00
54872;BME280;43914;57.680;11.982;2023-09-19T03:52:14;98586.30;;;16.47;100.00
54872;BME280;43914;57.680;11.982;2023-09-19T03:54:42;98586.80;;;16.44;100.00
54872;BME280;43914;57.680;11.982;2023-09-19T03:57:10;98580.20;;;16.42;100.00
54872;BME280;43914;57.680;11.982;2023-09-19T03:59:35;98578.63;;;16.40;100.00
54872;BME280;43914;57.680;11.982;2023-09-19T04:02:01;98577.66;;;16.38;100.00
54872;BME280;43914;57.680;11.982;2023-09-19T04:04:27;98575.54;;;16.37;100.00
54872;BME280;43914;57.680;11.982;2023-09-19T04:06:54;98570.34;;;16.35;100.00
54872;BME280;43914;57.680;11.982;2023-09-19T04:09:20;98576.86;;;16.34;100.00
54872;BME280;43914;57.680;11.982;2023-09-19T04:11:45;98572.84;;;16.35;100.00
54872;BME280;43914;57.680;11.982;2023-09-19T04:14:11;98567.10;;;16.34;100.00
54872;BME280;43914;57.680;11.982;2023-09-19T04:16:36;98563.67;;;16.34;100.00
54872;BME280;43914;57.680;11.982;2023-09-19T04:19:02;98563.35;;;16.34;100.00
54872;BME280;43914;57.680;11.982;2023-09-19T04:21:29;98569.70;;;16.33;100.00
54872;BME280;43914;57.680;11.982;2023-09-19T04:23:54;98569.86;;;16.33;100.00
54872;BME280;43914;57.680;11.982;2023-09-19T04:26:20;98560.38;;;16.31;100.00
54872;BME280;43914;57.680;11.982;2023-09-19T04:28:46;98566.08;;;16.30;100.00
54872;BME280;43914;57.680;11.982;2023-09-19T04:31:12;98560.33;;;16.30;100.00
54872;BME280;43914;57.680;11.982;2023-09-19T04:33:39;98559.10;;;16.29;100.00
54872;BME280;43914;57.680;11.982;2023-09-19T04:36:05;98559.80;;;16.28;100.00
54872;BME280;43914;57.680;11.982;2023-09-19T04:38:33;98557.58;;;16.28;100.00
54872;BME280;43914;57.680;11.982;2023-09-19T04:40:59;98563.81;;;16.27;100.00
54872;BME280;43914;57.680;11.982;2023-09-19T04:43:25;98563.77;;;16.24;100.00
54872;BME280;43914;57.680;11.982;2023-09-19T04:45:51;98566.48;;;16.21;100.00
54872;BME280;43914;57.680;11.982;2023-09-19T04:48:22;98565.25;;;16.16;100.00
54872;BME280;43914;57.680;11.982;2023-09-19T04:50:49;98571.94;;;16.11;100.00
54872;BME280;43914;57.680;11.982;2023-09-19T04:53:17;98576.55;;;16.07;100.00
54872;BME280;43914;57.680;11.982;2023-09-19T04:55:44;98585.23;;;16.03;100.00
54872;BME280;43914;57.680;11.982;2023-09-19T04:58:10;98586.75;;;15.98;100.00
54872;BME280;43914;57.680;11.982;2023-09-19T05:00:35;98583.08;;;15.93;100.00
54872;BME280;43914;57.680;11.982;2023-09-19T05:03:01;98586.91;;;15.88;100.00
54872;BME280;43914;57.680;11.982;2023-09-19T05:05:30;98596.22;;;15.81;100.00
54872;BME280;43914;57.680;11.982;2023-09-19T05:07:56;98596.12;;;15.73;100.00
54872;BME280;43914;57.680;11.982;2023-09-19T05:10:22;98605.54;;;15.69;100.00
54872;BME280;43914;57.680;11.982;2023-09-19T05:12:47;98602.02;;;15.63;100.00
54872;BME280;43914;57.680;11.982;2023-09-19T05:15:14;98602.29;;;15.56;100.00
54872;BME280;43914;57.680;11.982;2023-09-19T05:17:50;98604.08;;;15.48;100.00
54872;BME280;43914;57.680;11.982;2023-09-19T05:20:16;98607.24;;;15.42;100.00
54872;BME280;43914;57.680;11.982;2023-09-19T05:22:43;98610.45;;;15.38;100.00
54872;BME280;43914;57.680;11.982;2023-09-19T05:25:11;98613.32;;;15.37;100.00
54872;BME280;43914;57.680;11.982;2023-09-19T05:27:46;98608.17;;;15.34;100.00
54872;BME280;43914;57.680;11.982;2023-09-19T05:30:13;98610.13;;;15.31;100.00
54872;BME280;43914;57.680;11.982;2023-09-19T05:32:41;98602.16;;;15.27;100.00
54872;BME280;43914;57.680;11.982;2023-09-19T05:35:06;98601.98;;;15.24;100.00
54872;BME280;43914;57.680;11.982;2023-09-19T05:37:35;98607.45;;;15.21;100.00
54872;BME280;43914;57.680;11.982;2023-09-19T05:40:02;98605.98;;;15.15;100.00
54872;BME280;43914;57.680;11.982;2023-09-19T05:42:35;98610.03;;;15.14;100.00
54872;BME280;43914;57.680;11.982;2023-09-19T05:45:03;98619.45;;;15.13;100.00
54872;BME280;43914;57.680;11.982;2023-09-19T05:47:32;98613.48;;;15.12;100.00
54872;BME280;43914;57.680;11.982;2023-09-19T05:49:57;98623.17;;;15.11;100.00
54872;BME280;43914;57.680;11.982;2023-09-19T05:52:24;98626.36;;;15.10;100.00
54872;BME280;43914;57.680;11.982;2023-09-19T05:54:50;98631.81;;;15.09;100.00
54872;BME280;43914;57.680;11.982;2023-09-19T05:57:15;98636.47;;;15.07;100.00
54872;BME280;43914;57.680;11.982;2023-09-19T05:59:41;98643.06;;;15.06;100.00
54872;BME280;43914;57.680;11.982;2023-09-19T06:02:08;98643.12;;;15.04;100.00
54872;BME280;43914;57.680;11.982;2023-09-19T06:04:35;98653.89;;;15.03;100.00
54872;BME280;43914;57.680;11.982;2023-09-19T06:07:01;98661.40;;;14.99;100.00
54872;BME280;43914;57.680;11.982;2023-09-19T06:09:29;98667.19;;;14.98;100.00
54872;BME280;43914;57.680;11.982;2023-09-19T06:11:58;98668.21;;;14.97;100.00
54872;BME280;43914;57.680;11.982;2023-09-19T06:14:28;98669.49;;;14.94;100.00
54872;BME280;43914;57.680;11.982;2023-09-19T06:16:54;98673.48;;;14.92;100.00
54872;BME280;43914;57.680;11.982;2023-09-19T06:19:20;98677.43;;;14.90;100.00
54872;BME280;43914;57.680;11.982;2023-09-19T06:21:48;98681.38;;;14.88;100.00
54872;BME280;43914;57.680;11.982;2023-09-19T06:24:14;98689.90;;;14.86;100.00
54872;BME280;43914;57.680;11.982;2023-09-19T06:26:40;98695.48;;;14.87;100.00
54872;BME280;43914;57.680;11.982;2023-09-19T06:29:06;98711.79;;;14.81;100.00
54872;BME280;43914;57.680;11.982;2023-09-19T06:31:33;98716.44;;;14.73;100.00
54872;BME280;43914;57.680;11.982;2023-09-19T06:33:59;98715.30;;;14.59;100.00
54872;BME280;43914;57.680;11.982;2023-09-19T06:36:25;98710.76;;;14.49;100.00
54872;BME280;43914;57.680;11.982;2023-09-19T06:38:51;98710.59;;;14.41;100.00
54872;BME280;43914;57.680;11.982;2023-09-19T06:41:17;98716.52;;;14.37;100.00
54872;BME280;43914;57.680;11.982;2023-09-19T06:43:43;98710.14;;;14.37;100.00
54872;BME280;43914;57.680;11.982;2023-09-19T06:46:09;98711.61;;;14.38;100.00
54872;BME280;43914;57.680;11.982;2023-09-19T06:48:35;98710.77;;;14.42;100.00
54872;BME280;43914;57.680;11.982;2023-09-19T06:51:01;98708.13;;;14.45;100.00
54872;BME280;43914;57.680;11.982;2023-09-19T06:53:34;98711.02;;;14.49;100.00
54872;BME280;43914;57.680;11.982;2023-09-19T06:56:01;98708.42;;;14.56;100.00
54872;BME280;43914;57.680;11.982;2023-09-19T06:58:27;98708.08;;;14.60;100.00
54872;BME280;43914;57.680;11.982;2023-09-19T07:00:53;98708.69;;;14.65;100.00
54872;BME280;43914;57.680;11.982;2023-09-19T07:03:19;98708.29;;;14.68;100.00
54872;BME280;43914;57.680;11.982;2023-09-19T07:05:47;98715.86;;;14.76;100.00
54872;BME280;43914;57.680;11.982;2023-09-19T07:08:13;98711.04;;;14.82;100.00
54872;BME280;43914;57.680;11.982;2023-09-19T07:10:41;98717.73;;;14.90;100.00
54872;BME280;43914;57.680;11.982;2023-09-19T07:13:14;98719.95;;;14.95;100.00
54872;BME280;43914;57.680;11.982;2023-09-19T07:15:42;98720.85;;;14.99;100.00
54872;BME280;43914;57.680;11.982;2023-09-19T07:18:16;98717.95;;;15.04;100.00
54872;BME280;43914;57.680;11.982;2023-09-19T07:20:43;98715.36;;;15.08;100.00
54872;BME280;43914;57.680;11.982;2023-09-19T07:23:29;98716.52;;;15.13;100.00
54872;BME280;43914;57.680;11.982;2023-09-19T07:25:58;98716.33;;;15.15;100.00
54872;BME280;43914;57.680;11.982;2023-09-19T07:28:25;98725.16;;;15.19;100.00
54872;BME280;43914;57.680;11.982;2023-09-19T07:30:50;98724.84;;;15.20;100.00
54872;BME280;43914;57.680;11.982;2023-09-19T07:33:16;98725.55;;;15.23;100.00
54872;BME280;43914;57.680;11.982;2023-09-19T07:35:45;98715.05;;;15.23;100.00
54872;BME280;43914;57.680;11.982;2023-09-19T07:38:11;98713.48;;;15.20;100.00
54872;BME280;43914;57.680;11.982;2023-09-19T07:40:37;98720.44;;;15.15;100.00
54872;BME280;43914;57.680;11.982;2023-09-19T07:43:02;98724.61;;;15.16;100.00
54872;BME280;43914;57.680;11.982;2023-09-19T07:45:30;98732.89;;;15.17;100.00
54872;BME280;43914;57.680;11.982;2023-09-19T07:47:57;98738.77;;;15.17;100.00
54872;BME280;43914;57.680;11.982;2023-09-19T07:50:22;98740.84;;;15.16;100.00
54872;BME280;43914;57.680;11.982;2023-09-19T07:52:49;98739.20;;;15.15;100.00
54872;BME280;43914;57.680;11.982;2023-09-19T07:55:19;98744.23;;;15.12;100.00
54872;BME280;43914;57.680;11.982;2023-09-19T07:57:49;98742.04;;;15.07;100.00
54872;BME280;43914;57.680;11.982;2023-09-19T08:00:14;98743.96;;;15.02;100.00
54872;BME280;43914;57.680;11.982;2023-09-19T08:02:40;98756.83;;;15.00;100.00
54872;BME280;43914;57.680;11.982;2023-09-19T08:05:08;98745.77;;;14.95;100.00
54872;BME280;43914;57.680;11.982;2023-09-19T08:07:37;98755.40;;;14.95;100.00
54872;BME280;43914;57.680;11.982;2023-09-19T08:10:04;98752.09;;;14.94;100.00
54872;BME280;43914;57.680;11.982;2023-09-19T08:12:36;98751.50;;;14.96;100.00
54872;BME280;43914;57.680;11.982;2023-09-19T08:15:02;98754.64;;;14.93;100.00
54872;BME280;43914;57.680;11.982;2023-09-19T08:17:28;98743.91;;;14.93;100.00
54872;BME280;43914;57.680;11.982;2023-09-19T08:19:54;98752.69;;;14.94;100.00
54872;BME280;43914;57.680;11.982;2023-09-19T08:22:20;98746.70;;;14.96;100.00
54872;BME280;43914;57.680;11.982;2023-09-19T08:24:47;98743.34;;;14.97;100.00
54872;BME280;43914;57.680;11.982;2023-09-19T08:27:13;98742.41;;;14.96;100.00
54872;BME280;43914;57.680;11.982;2023-09-19T08:29:39;98753.56;;;14.95;100.00
54872;BME280;43914;57.680;11.982;2023-09-19T08:32:04;98751.15;;;14.98;100.00
54872;BME280;43914;57.680;11.982;2023-09-19T08:34:30;98752.42;;;15.04;100.00
54872;BME280;43914;57.680;11.982;2023-09-19T08:36:58;98767.82;;;15.11;100.00
54872;BME280;43914;57.680;11.982;2023-09-19T08:39:24;98779.98;;;15.11;100.00
54872;BME280;43914;57.680;11.982;2023-09-19T08:42:01;98779.39;;;15.10;100.00
54872;BME280;43914;57.680;11.982;2023-09-19T08:44:27;98783.08;;;15.12;100.00
54872;BME280;43914;57.680;11.982;2023-09-19T08:47:04;98786.94;;;15.14;100.00
54872;BME280;43914;57.680;11.982;2023-09-19T08:52:32;98797.63;;;15.09;100.00
54872;BME280;43914;57.680;11.982;2023-09-19T08:55:02;98798.56;;;15.03;100.00
54872;BME280;43914;57.680;11.982;2023-09-19T08:57:36;98805.53;;;14.91;100.00
54872;BME280;43914;57.680;11.982;2023-09-19T09:00:07;98797.60;;;14.85;100.00
54872;BME280;43914;57.680;11.982;2023-09-19T09:02:41;98798.75;;;14.87;100.00
54872;BME280;43914;57.680;11.982;2023-09-19T09:05:09;98800.13;;;14.83;100.00
54872;BME280;43914;57.680;11.982;2023-09-19T09:07:38;98801.27;;;14.77;100.00
54872;BME280;43914;57.680;11.982;2023-09-19T09:10:08;98787.13;;;14.68;100.00
54872;BME280;43914;57.680;11.982;2023-09-19T09:12:38;98782.55;;;14.57;100.00
54872;BME280;43914;57.680;11.982;2023-09-19T09:15:05;98793.45;;;14.41;100.00
54872;BME280;43914;57.680;11.982;2023-09-19T09:17:30;98799.28;;;14.25;100.00
54872;BME280;43914;57.680;11.982;2023-09-19T09:19:56;98797.70;;;14.13;100.00
54872;BME280;43914;57.680;11.982;2023-09-19T09:22:22;98796.91;;;14.03;100.00
54872;BME280;43914;57.680;11.982;2023-09-19T09:24:52;98802.21;;;13.93;100.00
54872;BME280;43914;57.680;11.982;2023-09-19T09:27:24;98803.26;;;13.85;100.00
54872;BME280;43914;57.680;11.982;2023-09-19T09:29:51;98804.46;;;13.81;100.00
54872;BME280;43914;57.680;11.982;2023-09-19T09:37:20;98812.65;;;13.89;100.00
54872;BME280;43914;57.680;11.982;2023-09-19T09:39:50;98804.21;;;13.92;100.00
54872;BME280;43914;57.680;11.982;2023-09-19T09:42:33;98805.52;;;13.95;100.00
54872;BME280;43914;57.680;11.982;2023-09-19T09:45:17;98807.82;;;14.03;100.00
54872;BME280;43914;57.680;11.982;2023-09-19T09:47:48;98808.21;;;14.10;100.00
54872;BME280;43914;57.680;11.982;2023-09-19T09:50:33;98809.50;;;14.16;100.00
54872;BME280;43914;57.680;11.982;2023-09-19T09:53:26;98806.77;;;14.18;100.00
54872;BME280;43914;57.680;11.982;2023-09-19T09:56:19;98815.05;;;14.14;100.00
54872;BME280;43914;57.680;11.982;2023-09-19T09:58:51;98819.42;;;14.08;100.00
54872;BME280;43914;57.680;11.982;2023-09-19T10:01:21;98821.46;;;14.01;100.00
54872;BME280;43914;57.680;11.982;2023-09-19T10:03:57;98828.83;;;13.97;100.00
54872;BME280;43914;57.680;11.982;2023-09-19T10:06:23;98834.65;;;13.95;100.00
54872;BME280;43914;57.680;11.982;2023-09-19T10:09:09;98849.48;;;13.94;100.00
54872;BME280;43914;57.680;11.982;2023-09-19T10:12:09;98844.48;;;13.86;100.00
54872;BME280;43914;57.680;11.982;2023-09-19T10:14:38;98846.71;;;13.79;100.00
54872;BME280;43914;57.680;11.982;2023-09-19T10:17:05;98850.91;;;13.76;100.00
54872;BME280;43914;57.680;11.982;2023-09-19T10:19:43;98850.50;;;13.83;100.00
54872;BME280;43914;57.680;11.982;2023-09-19T10:22:13;98842.14;;;13.94;100.00
54872;BME280;43914;57.680;11.982;2023-09-19T10:24:47;98842.30;;;14.01;100.00
54872;BME280;43914;57.680;11.982;2023-09-19T10:27:19;98847.98;;;14.11;100.00
54872;BME280;43914;57.680;11.982;2023-09-19T10:29:51;98850.09;;;14.10;100.00
54872;BME280;43914;57.680;11.982;2023-09-19T10:32:22;98854.77;;;14.09;100.00
54872;BME280;43914;57.680;11.982;2023-09-19T10:34:49;98856.21;;;14.08;100.00
54872;BME280;43914;57.680;11.982;2023-09-19T10:37:20;98862.65;;;14.07;100.00
54872;BME280;43914;57.680;11.982;2023-09-19T10:39:48;98860.24;;;14.10;100.00
54872;BME280;43914;57.680;11.982;2023-09-19T10:42:19;98847.02;;;14.13;100.00
54872;BME280;43914;57.680;11.982;2023-09-19T10:44:47;98856.34;;;14.16;100.00
54872;BME280;43914;57.680;11.982;2023-09-19T10:47:19;98861.20;;;14.19;100.00
54872;BME280;43914;57.680;11.982;2023-09-19T10:49:47;98864.83;;;14.25;100.00
54872;BME280;43914;57.680;11.982;2023-09-19T10:52:14;98866.92;;;14.31;100.00
54872;BME280;43914;57.680;11.982;2023-09-19T10:54:47;98851.84;;;14.35;100.00
54872;BME280;43914;57.680;11.982;2023-09-19T10:57:23;98851.20;;;14.35;100.00
54872;BME280;43914;57.680;11.982;2023-09-19T11:00:06;98856.84;;;14.33;100.00
54872;BME280;43914;57.680;11.982;2023-09-19T11:05:41;98882.60;;;14.19;94.85
54872;BME280;43914;57.680;11.982;2023-09-19T11:08:07;98886.36;;;14.13;92.27
54872;BME280;43914;57.680;11.982;2023-09-19T11:13:25;98892.73;;;14.12;92.88
54872;BME280;43914;57.680;11.982;2023-09-19T11:19:01;98895.14;;;14.20;97.86
54872;BME280;43914;57.680;11.982;2023-09-19T11:27:09;98887.95;;;14.47;93.09
54872;BME280;43914;57.680;11.982;2023-09-19T11:29:39;98892.99;;;14.67;91.19
54872;BME280;43914;57.680;11.982;2023-09-19T11:32:06;98897.05;;;14.89;90.20
54872;BME280;43914;57.680;11.982;2023-09-19T11:34:39;98894.91;;;15.08;89.91
54872;BME280;43914;57.680;11.982;2023-09-19T11:39:40;98899.67;;;15.43;91.89
54872;BME280;43914;57.680;11.982;2023-09-19T11:42:46;98906.78;;;15.45;88.69
54872;BME280;43914;57.680;11.982;2023-09-19T11:48:18;98913.70;;;15.42;90.24
54872;BME280;43914;57.680;11.982;2023-09-19T11:50:45;98912.17;;;15.50;90.99
54872;BME280;43914;57.680;11.982;2023-09-19T11:53:13;98917.86;;;15.54;90.19
54872;BME280;43914;57.680;11.982;2023-09-19T11:55:40;98924.18;;;15.48;91.38
54872;BME280;43914;57.680;11.982;2023-09-19T11:58:08;98926.17;;;15.46;92.22
54872;BME280;43914;57.680;11.982;2023-09-19T12:00:37;98933.59;;;15.39;91.50
54872;BME280;43914;57.680;11.982;2023-09-19T12:03:08;98935.71;;;15.41;91.79
54872;BME280;43914;57.680;11.982;2023-09-19T12:05:37;98943.19;;;15.40;91.47
54872;BME280;43914;57.680;11.982;2023-09-19T12:08:05;98939.40;;;15.49;90.72
54872;BME280;43914;57.680;11.982;2023-09-19T12:10:50;98953.32;;;15.49;89.93
54872;BME280;43914;57.680;11.982;2023-09-19T12:13:17;98949.79;;;15.47;90.18
54872;BME280;43914;57.680;11.982;2023-09-19T12:15:44;98950.58;;;15.55;90.71
54872;BME280;43914;57.680;11.982;2023-09-19T12:18:30;98941.27;;;15.64;91.59
54872;BME280;43914;57.680;11.982;2023-09-19T12:20:57;98940.77;;;15.74;91.55
54872;BME280;43914;57.680;11.982;2023-09-19T12:23:24;98946.29;;;15.79;89.53
54872;BME280;43914;57.680;11.982;2023-09-19T12:25:51;98946.39;;;15.80;89.22
54872;BME280;43914;57.680;11.982;2023-09-19T12:28:20;98950.06;;;15.96;91.26
54872;BME280;43914;57.680;11.982;2023-09-19T12:30:50;98951.79;;;16.20;91.46
54872;BME280;43914;57.680;11.982;2023-09-19T12:33:18;98963.47;;;16.31;90.28
54872;BME280;43914;57.680;11.982;2023-09-19T12:35:50;98954.43;;;16.37;88.77
54872;BME280;43914;57.680;11.982;2023-09-19T12:38:27;98952.56;;;16.42;88.98
54872;BME280;43914;57.680;11.982;2023-09-19T12:40:57;98958.52;;;16.40;89.44
54872;BME280;43914;57.680;11.982;2023-09-19T12:43:26;98964.02;;;16.31;89.13
54872;BME280;43914;57.680;11.982;2023-09-19T12:45:52;98957.98;;;16.12;89.10
54872;BME280;43914;57.680;11.982;2023-09-19T12:48:22;98960.54;;;15.99;90.69
54872;BME280;43914;57.680;11.982;2023-09-19T12:51:08;98964.50;;;15.82;91.43
54872;BME280;43914;57.680;11.982;2023-09-19T12:53:43;98958.20;;;15.71;93.21
54872;BME280;43914;57.680;11.982;2023-09-19T12:56:13;98947.52;;;15.69;94.15
54872;BME280;43914;57.680;11.982;2023-09-19T12:58:59;98943.07;;;15.66;95.71
54872;BME280;43914;57.680;11.982;2023-09-19T13:01:28;98940.42;;;15.58;96.11
54872;BME280;43914;57.680;11.982;2023-09-19T13:04:14;98946.89;;;15.54;95.87
54872;BME280;43914;57.680;11.982;2023-09-19T13:07:00;98944.50;;;15.50;94.63
54872;BME280;43914;57.680;11.982;2023-09-19T13:09:27;98934.41;;;15.48;94.58
54872;BME280;43914;57.680;11.982;2023-09-19T13:12:05;98940.56;;;15.55;95.00
54872;BME280;43914;57.680;11.982;2023-09-19T13:15:08;98930.23;;;15.54;96.19
54872;BME280;43914;57.680;11.982;2023-09-19T13:17:48;98942.34;;;15.55;96.83
54872;BME280;43914;57.680;11.982;2023-09-19T13:20:41;98936.30;;;15.58;95.66
54872;BME280;43914;57.680;11.982;2023-09-19T13:23:27;98927.61;;;15.61;94.41
54872;BME280;43914;57.680;11.982;2023-09-19T13:25:53;98932.11;;;15.63;91.90
54872;BME280;43914;57.680;11.982;2023-09-19T13:28:19;98939.10;;;15.64;88.71
54872;BME280;43914;57.680;11.982;2023-09-19T13:30:44;98937.80;;;15.65;87.79
54872;BME280;43914;57.680;11.982;2023-09-19T13:33:13;98932.89;;;15.64;85.62
54872;BME280;43914;57.680;11.982;2023-09-19T13:35:44;98929.25;;;15.66;84.15
54872;BME280;43914;57.680;11.982;2023-09-19T13:38:10;98923.26;;;15.70;83.27
54872;BME280;43914;57.680;11.982;2023-09-19T13:40:38;98924.05;;;15.77;82.92
54872;BME280;43914;57.680;11.982;2023-09-19T13:43:07;98929.71;;;15.82;80.35
54872;BME280;43914;57.680;11.982;2023-09-19T13:45:33;98926.27;;;15.86;79.87
54872;BME280;43914;57.680;11.982;2023-09-19T13:47:59;98919.55;;;15.92;80.64